CheckWX is a tool to help pilots better visualize weather data.  It is not intended as a substitute for an official pre-flight weather briefing.

14:44:18 UTC

KCON METAR
Concord Municipal Airport
Concord, New Hampshire, USA
Current

53 mins ago

KCON 201351Z AUTO 22006KT 10SM FEW075 22/17 A2974 RMK AO2 SLP070 T02220172
Observed
May-20 @ 13:51 UTC
Wind
  • 220° at 6 KTS
Visibility
10 SM
Flight Rules
VFR
Cloud Levels
  • Few at 7,500' AGL
Temperature
22°C / 72°F
Dewpoint
17°C / 63°F
Humidity
73%
Altimeter
29.74" Hg
Pressure
1007.12 hPa
Previous

2 hours ago

KCON 201251Z AUTO 17005KT 10SM FEW110 21/17 A2977 RMK AO2 SLP079 T02060172
Observed
May-20 @ 12:51 UTC
Wind
  • 170° at 5 KTS
Visibility
10 SM
Flight Rules
VFR
Cloud Levels
  • Few at 11,000' AGL
Temperature
21°C / 70°F
Dewpoint
17°C / 63°F
Humidity
78%
Altimeter
29.77" Hg
Pressure
1008.12 hPa
Previous

3 hours ago

KCON 201151Z AUTO VRB04KT 10SM FEW050 SCT060 BKN080 20/17 A2978 RMK AO2 RAB06E50 SLP082 P0000 60001 70001 T02000167 10200 20178 53002
Observed
May-20 @ 11:51 UTC
Wind
  • Variable at 4 KTS
Visibility
10 SM
Flight Rules
VFR
Cloud Levels
  • Few at 5,000' AGL
  • Scattered at 6,000' AGL
  • Broken at 8,000' AGL
Temperature
20°C / 68°F
Dewpoint
17°C / 63°F
Humidity
83%
Altimeter
29.78" Hg
Pressure
1008.42 hPa
Current Rain
0.01"
24 Hour Rain
0.01"